Time;durP1;ratioP1;P1;durP2;ratioP2;P2;SDS_P1;SDS_P2;PMS_P1;PMS_P2;Temp;Humidity;BMP_temperature;BMP_pressure;BME280_temperature;BME280_humidity;BME280_pressure;Samples;Min_cycle;Max_cycle;Signal;HPM_P1;HPM_P2
2022/09/14 00:00:08;;;;;;;9.200001;4.5;;;;;;;17.73;74.75586;94624.24;;;;
2022/09/14 00:01:09;;;;;;;9.200001;4.5;;;;;;;17.73;74.75586;94624.24;;;;
2022/09/14 00:02:11;;;;;;;9.200001;4.5;;;;;;;17.73;74.75586;94624.24;;;;
2022/09/14 00:03:12;;;;;;;9.200001;4.5;;;;;;;17.73;74.75586;94624.24;;;;
2022/09/14 00:04:13;;;;;;;9.200001;4.5;;;;;;;17.73;74.75586;94624.24;;;;
2022/09/14 00:05:15;;;;;;;9.200001;4.5;;;;;;;17.73;74.75586;94624.24;;;;
2022/09/14 00:06:16;;;;;;;9.200001;4.5;;;;;;;17.73;74.75586;94624.24;;;;
2022/09/14 00:07:17;;;;;;;9.200001;4.5;;;;;;;17.73;74.75586;94624.24;;;;
2022/09/14 00:08:17;;;;;;;9.200001;4.5;;;;;;;17.73;74.75586;94624.24;;;;
2022/09/14 00:09:18;;;;;;;9.200001;4.5;;;;;;;17.73;74.75586;94624.24;;;;
2022/09/14 00:10:22;;;;;;;9.200001;4.5;;;;;;;17.73;74.75586;94624.24;;;;
2022/09/14 00:11:22;;;;;;;9.200001;4.5;;;;;;;17.73;74.75586;94624.24;;;;
2022/09/14 00:12:26;;;;;;;9.200001;4.5;;;;;;;17.73;74.75586;94624.24;;;;
2022/09/14 00:13:26;;;;;;;9.200001;4.5;;;;;;;17.73;74.75586;94624.24;;;;
2022/09/14 00:14:27;;;;;;;9.200001;4.5;;;;;;;17.73;74.75586;94624.24;;;;
2022/09/14 00:15:28;;;;;;;9.200001;4.5;;;;;;;17.73;74.75586;94624.24;;;;
2022/09/14 00:16:28;;;;;;;9.200001;4.5;;;;;;;17.73;74.75586;94624.24;;;;
2022/09/14 00:17:31;;;;;;;9.200001;4.5;;;;;;;17.73;74.75586;94624.24;;;;
2022/09/14 00:18:32;;;;;;;9.200001;4.5;;;;;;;17.73;74.75586;94624.24;;;;
2022/09/14 00:19:34;;;;;;;4.6;3.8;;;;;;;17.66;75.07227;94607.67;;;;
2022/09/14 00:20:34;;;;;;;4.6;3.8;;;;;;;17.66;75.07227;94607.67;;;;
2022/09/14 00:21:35;;;;;;;4.6;3.8;;;;;;;17.66;75.07227;94607.67;;;;
2022/09/14 00:22:37;;;;;;;4.6;3.8;;;;;;;17.66;75.07227;94607.67;;;;
2022/09/14 00:23:38;;;;;;;4.6;3.8;;;;;;;17.66;75.07227;94607.67;;;;
2022/09/14 00:24:40;;;;;;;4.6;3.8;;;;;;;17.66;75.07227;94607.67;;;;
2022/09/14 00:25:40;;;;;;;4.6;3.8;;;;;;;17.66;75.07227;94607.67;;;;
2022/09/14 00:26:41;;;;;;;4.6;3.8;;;;;;;17.66;75.07227;94607.67;;;;
2022/09/14 00:27:41;;;;;;;4.6;3.8;;;;;;;17.66;75.07227;94607.67;;;;
2022/09/14 00:28:42;;;;;;;4.6;3.8;;;;;;;17.66;75.07227;94607.67;;;;
2022/09/14 00:29:47;;;;;;;5.45;3.900001;;;;;;;17.65;75.22266;94614.1;;;;
2022/09/14 00:30:47;;;;;;;5.45;3.900001;;;;;;;17.65;75.22266;94614.1;;;;
2022/09/14 00:31:48;;;;;;;5.45;3.900001;;;;;;;17.65;75.22266;94614.1;;;;
2022/09/14 00:32:49;;;;;;;5.45;3.900001;;;;;;;17.65;75.22266;94614.1;;;;
2022/09/14 00:33:50;;;;;;;5.45;3.900001;;;;;;;17.65;75.22266;94614.1;;;;
2022/09/14 00:34:52;;;;;;;5.45;3.900001;;;;;;;17.65;75.22266;94614.1;;;;
2022/09/14 00:35:52;;;;;;;5.45;3.900001;;;;;;;17.65;75.22266;94614.1;;;;
2022/09/14 00:36:53;;;;;;;5.45;3.900001;;;;;;;17.65;75.22266;94614.1;;;;
2022/09/14 00:37:53;;;;;;;5.45;3.900001;;;;;;;17.65;75.22266;94614.1;;;;
2022/09/14 00:38:55;;;;;;;5.45;3.900001;;;;;;;17.65;75.22266;94614.1;;;;
2022/09/14 00:39:56;;;;;;;5.45;3.900001;;;;;;;17.65;75.22266;94614.1;;;;
2022/09/14 00:40:57;;;;;;;5.400001;3.85;;;;;;;17.55;75.44727;94602.09;;;;
2022/09/14 00:41:58;;;;;;;5.400001;3.85;;;;;;;17.55;75.44727;94602.09;;;;
2022/09/14 00:42:58;;;;;;;5.400001;3.85;;;;;;;17.55;75.44727;94602.09;;;;
2022/09/14 00:44:00;;;;;;;5.400001;3.85;;;;;;;17.55;75.44727;94602.09;;;;
2022/09/14 00:45:04;;;;;;;5.400001;3.85;;;;;;;17.55;75.44727;94602.09;;;;
2022/09/14 00:46:15;;;;;;;5.400001;3.85;;;;;;;17.55;75.44727;94602.09;;;;
2022/09/14 00:47:15;;;;;;;5.400001;3.85;;;;;;;17.55;75.44727;94602.09;;;;
2022/09/14 00:48:16;;;;;;;5.400001;3.85;;;;;;;17.55;75.44727;94602.09;;;;
2022/09/14 00:49:19;;;;;;;5.400001;3.85;;;;;;;17.55;75.44727;94602.09;;;;
2022/09/14 00:50:24;;;;;;;5.400001;3.85;;;;;;;17.55;75.44727;94602.09;;;;
2022/09/14 00:51:24;;;;;;;4.4;3.9;;;;;;;17.55;75.61133;94584.72;;;;
2022/09/14 00:52:27;;;;;;;4.4;3.9;;;;;;;17.55;75.61133;94584.72;;;;
2022/09/14 00:53:30;;;;;;;4.4;3.9;;;;;;;17.55;75.61133;94584.72;;;;
2022/09/14 00:54:31;;;;;;;4.4;3.9;;;;;;;17.55;75.61133;94584.72;;;;
2022/09/14 00:55:32;;;;;;;4.4;3.9;;;;;;;17.55;75.61133;94584.72;;;;
2022/09/14 00:56:32;;;;;;;4.4;3.9;;;;;;;17.55;75.61133;94584.72;;;;
2022/09/14 00:57:33;;;;;;;4.4;3.9;;;;;;;17.55;75.61133;94584.72;;;;
2022/09/14 00:58:37;;;;;;;4.4;3.9;;;;;;;17.55;75.61133;94584.72;;;;
2022/09/14 00:59:37;;;;;;;4.4;3.9;;;;;;;17.55;75.61133;94584.72;;;;
2022/09/14 01:00:41;;;;;;;4.4;3.9;;;;;;;17.55;75.61133;94584.72;;;;
2022/09/14 01:01:41;;;;;;;4.100001;3.7;;;;;;;17.49;75.87305;94564.4;;;;
2022/09/14 01:02:42;;;;;;;4.100001;3.7;;;;;;;17.49;75.87305;94564.4;;;;
2022/09/14 01:03:43;;;;;;;4.100001;3.7;;;;;;;17.49;75.87305;94564.4;;;;
2022/09/14 01:04:44;;;;;;;4.100001;3.7;;;;;;;17.49;75.87305;94564.4;;;;
2022/09/14 01:05:46;;;;;;;4.100001;3.7;;;;;;;17.49;75.87305;94564.4;;;;
2022/09/14 01:06:58;;;;;;;4.100001;3.7;;;;;;;17.49;75.87305;94564.4;;;;
2022/09/14 01:08:10;;;;;;;4.100001;3.7;;;;;;;17.49;75.87305;94564.4;;;;
2022/09/14 01:09:32;;;;;;;4.100001;3.7;;;;;;;17.49;75.87305;94564.4;;;;
2022/09/14 01:10:41;;;;;;;4.100001;3.7;;;;;;;17.49;75.87305;94564.4;;;;
2022/09/14 01:11:52;;;;;;;4.100001;3.7;;;;;;;17.49;75.87305;94564.4;;;;
2022/09/14 01:13:06;;;;;;;5.099999;4.599999;;;;;;;17.54;76.06641;94539.56;;;;
2022/09/14 01:14:20;;;;;;;5.099999;4.599999;;;;;;;17.54;76.06641;94539.56;;;;
2022/09/14 01:15:30;;;;;;;5.099999;4.599999;;;;;;;17.54;76.06641;94539.56;;;;
2022/09/14 01:16:40;;;;;;;5.099999;4.599999;;;;;;;17.54;76.06641;94539.56;;;;
2022/09/14 01:17:48;;;;;;;5.099999;4.599999;;;;;;;17.54;76.06641;94539.56;;;;
2022/09/14 01:18:57;;;;;;;5.099999;4.599999;;;;;;;17.54;76.06641;94539.56;;;;
2022/09/14 01:20:00;;;;;;;5.099999;4.599999;;;;;;;17.54;76.06641;94539.56;;;;
2022/09/14 01:21:24;;;;;;;5.099999;4.599999;;;;;;;17.54;76.06641;94539.56;;;;
2022/09/14 01:22:29;;;;;;;5.099999;4.599999;;;;;;;17.54;76.06641;94539.56;;;;
2022/09/14 01:23:36;;;;;;;4.3;3.35;;;;;;;17.49;76.14648;94525.66;;;;
2022/09/14 01:24:46;;;;;;;4.3;3.35;;;;;;;17.49;76.14648;94525.66;;;;
2022/09/14 01:25:51;;;;;;;4.3;3.35;;;;;;;17.49;76.14648;94525.66;;;;
2022/09/14 01:27:08;;;;;;;4.3;3.35;;;;;;;17.49;76.14648;94525.66;;;;
2022/09/14 01:28:42;;;;;;;4.3;3.35;;;;;;;17.49;76.14648;94525.66;;;;
2022/09/14 01:29:49;;;;;;;4.3;3.35;;;;;;;17.49;76.14648;94525.66;;;;
2022/09/14 01:31:00;;;;;;;4.3;3.35;;;;;;;17.49;76.14648;94525.66;;;;
2022/09/14 01:32:05;;;;;;;4.3;3.35;;;;;;;17.49;76.14648;94525.66;;;;
2022/09/14 01:33:13;;;;;;;4.3;3.35;;;;;;;17.49;76.14648;94525.66;;;;
2022/09/14 01:34:20;;;;;;;4.15;3.7;;;;;;;17.48;76.37402;94520.98;;;;
2022/09/14 01:35:29;;;;;;;4.15;3.7;;;;;;;17.48;76.37402;94520.98;;;;
2022/09/14 01:36:36;;;;;;;4.15;3.7;;;;;;;17.48;76.37402;94520.98;;;;
2022/09/14 01:37:39;;;;;;;4.15;3.7;;;;;;;17.48;76.37402;94520.98;;;;
2022/09/14 01:38:44;;;;;;;4.15;3.7;;;;;;;17.48;76.37402;94520.98;;;;
2022/09/14 01:39:49;;;;;;;4.15;3.7;;;;;;;17.48;76.37402;94520.98;;;;
2022/09/14 01:40:55;;;;;;;4.15;3.7;;;;;;;17.48;76.37402;94520.98;;;;
2022/09/14 01:42:00;;;;;;;4.15;3.7;;;;;;;17.48;76.37402;94520.98;;;;
2022/09/14 01:43:01;;;;;;;4.15;3.7;;;;;;;17.48;76.37402;94520.98;;;;
2022/09/14 01:44:07;;;;;;;4.15;3.7;;;;;;;17.48;76.37402;94520.98;;;;
2022/09/14 01:45:13;;;;;;;6.150001;3.65;;;;;;;17.41;76.52539;94506.7;;;;
2022/09/14 01:46:17;;;;;;;6.150001;3.65;;;;;;;17.41;76.52539;94506.7;;;;
2022/09/14 01:47:22;;;;;;;6.150001;3.65;;;;;;;17.41;76.52539;94506.7;;;;
2022/09/14 01:48:27;;;;;;;6.150001;3.65;;;;;;;17.41;76.52539;94506.7;;;;
2022/09/14 01:49:33;;;;;;;6.150001;3.65;;;;;;;17.41;76.52539;94506.7;;;;
2022/09/14 01:50:38;;;;;;;6.150001;3.65;;;;;;;17.41;76.52539;94506.7;;;;
2022/09/14 01:51:44;;;;;;;6.150001;3.65;;;;;;;17.41;76.52539;94506.7;;;;
2022/09/14 01:52:47;;;;;;;6.150001;3.65;;;;;;;17.41;76.52539;94506.7;;;;
2022/09/14 01:53:53;;;;;;;6.150001;3.65;;;;;;;17.41;76.52539;94506.7;;;;
2022/09/14 01:54:59;;;;;;;6.150001;3.65;;;;;;;17.41;76.52539;94506.7;;;;
2022/09/14 01:56:05;;;;;;;4.199999;3.6;;;;;;;17.43;76.7041;94502.26;;;;
2022/09/14 01:57:13;;;;;;;4.199999;3.6;;;;;;;17.43;76.7041;94502.26;;;;
2022/09/14 01:58:21;;;;;;;4.199999;3.6;;;;;;;17.43;76.7041;94502.26;;;;
2022/09/14 01:59:29;;;;;;;4.199999;3.6;;;;;;;17.43;76.7041;94502.26;;;;
2022/09/14 02:00:35;;;;;;;4.199999;3.6;;;;;;;17.43;76.7041;94502.26;;;;
2022/09/14 02:01:38;;;;;;;4.199999;3.6;;;;;;;17.43;76.7041;94502.26;;;;
2022/09/14 02:02:45;;;;;;;4.199999;3.6;;;;;;;17.43;76.7041;94502.26;;;;
2022/09/14 02:03:51;;;;;;;4.199999;3.6;;;;;;;17.43;76.7041;94502.26;;;;
2022/09/14 02:04:58;;;;;;;4.199999;3.6;;;;;;;17.43;76.7041;94502.26;;;;
2022/09/14 02:06:05;;;;;;;5;3.2;;;;;;;17.42;76.87793;94505.1;;;;
2022/09/14 02:07:12;;;;;;;5;3.2;;;;;;;17.42;76.87793;94505.1;;;;
2022/09/14 02:08:14;;;;;;;5;3.2;;;;;;;17.42;76.87793;94505.1;;;;
2022/09/14 02:09:15;;;;;;;5;3.2;;;;;;;17.42;76.87793;94505.1;;;;
2022/09/14 02:10:23;;;;;;;5;3.2;;;;;;;17.42;76.87793;94505.1;;;;
2022/09/14 02:11:25;;;;;;;5;3.2;;;;;;;17.42;76.87793;94505.1;;;;
2022/09/14 02:12:25;;;;;;;5;3.2;;;;;;;17.42;76.87793;94505.1;;;;
2022/09/14 02:13:26;;;;;;;5;3.2;;;;;;;17.42;76.87793;94505.1;;;;
2022/09/14 02:14:27;;;;;;;5;3.2;;;;;;;17.42;76.87793;94505.1;;;;
2022/09/14 02:15:28;;;;;;;5;3.2;;;;;;;17.42;76.87793;94505.1;;;;
2022/09/14 02:16:29;;;;;;;3.35;3.05;;;;;;;17.51;77.0127;94503.47;;;;
2022/09/14 02:17:30;;;;;;;3.35;3.05;;;;;;;17.51;77.0127;94503.47;;;;
2022/09/14 02:18:30;;;;;;;3.35;3.05;;;;;;;17.51;77.0127;94503.47;;;;
2022/09/14 02:19:32;;;;;;;3.35;3.05;;;;;;;17.51;77.0127;94503.47;;;;
2022/09/14 02:20:37;;;;;;;3.35;3.05;;;;;;;17.51;77.0127;94503.47;;;;
2022/09/14 02:21:44;;;;;;;3.35;3.05;;;;;;;17.51;77.0127;94503.47;;;;
2022/09/14 02:22:45;;;;;;;3.35;3.05;;;;;;;17.51;77.0127;94503.47;;;;
2022/09/14 02:23:47;;;;;;;3.35;3.05;;;;;;;17.51;77.0127;94503.47;;;;
2022/09/14 02:24:48;;;;;;;3.35;3.05;;;;;;;17.51;77.0127;94503.47;;;;
2022/09/14 02:25:49;;;;;;;3.35;3.05;;;;;;;17.51;77.0127;94503.47;;;;
2022/09/14 02:26:50;;;;;;;3.35;3.05;;;;;;;17.51;77.0127;94503.47;;;;
2022/09/14 02:27:54;;;;;;;3;2.75;;;;;;;17.54;77.02832;94503.88;;;;
2022/09/14 02:28:55;;;;;;;3;2.75;;;;;;;17.54;77.02832;94503.88;;;;
2022/09/14 02:29:56;;;;;;;3;2.75;;;;;;;17.54;77.02832;94503.88;;;;
2022/09/14 02:30:56;;;;;;;3;2.75;;;;;;;17.54;77.02832;94503.88;;;;
2022/09/14 02:32:08;;;;;;;3;2.75;;;;;;;17.54;77.02832;94503.88;;;;
2022/09/14 02:33:21;;;;;;;3;2.75;;;;;;;17.54;77.02832;94503.88;;;;
2022/09/14 02:34:31;;;;;;;3;2.75;;;;;;;17.54;77.02832;94503.88;;;;
2022/09/14 02:35:42;;;;;;;3;2.75;;;;;;;17.54;77.02832;94503.88;;;;
2022/09/14 02:36:47;;;;;;;3;2.75;;;;;;;17.54;77.02832;94503.88;;;;
2022/09/14 02:37:56;;;;;;;2.75;2.55;;;;;;;17.62;77.12988;94509.59;;;;
2022/09/14 02:39:02;;;;;;;2.75;2.55;;;;;;;17.62;77.12988;94509.59;;;;
2022/09/14 02:40:13;;;;;;;2.75;2.55;;;;;;;17.62;77.12988;94509.59;;;;
2022/09/14 02:41:22;;;;;;;2.75;2.55;;;;;;;17.62;77.12988;94509.59;;;;
2022/09/14 02:42:35;;;;;;;2.75;2.55;;;;;;;17.62;77.12988;94509.59;;;;
2022/09/14 02:43:46;;;;;;;2.75;2.55;;;;;;;17.62;77.12988;94509.59;;;;
2022/09/14 02:44:53;;;;;;;2.75;2.55;;;;;;;17.62;77.12988;94509.59;;;;
2022/09/14 02:46:06;;;;;;;2.75;2.55;;;;;;;17.62;77.12988;94509.59;;;;
2022/09/14 02:47:16;;;;;;;2.75;2.55;;;;;;;17.62;77.12988;94509.59;;;;
2022/09/14 02:48:23;;;;;;;4.05;2.8;;;;;;;17.63;77.05566;94480.84;;;;
2022/09/14 02:49:33;;;;;;;4.05;2.8;;;;;;;17.63;77.05566;94480.84;;;;
2022/09/14 02:50:42;;;;;;;4.05;2.8;;;;;;;17.63;77.05566;94480.84;;;;
2022/09/14 02:51:49;;;;;;;4.05;2.8;;;;;;;17.63;77.05566;94480.84;;;;
2022/09/14 02:52:57;;;;;;;4.05;2.8;;;;;;;17.63;77.05566;94480.84;;;;
2022/09/14 02:54:04;;;;;;;4.05;2.8;;;;;;;17.63;77.05566;94480.84;;;;
2022/09/14 02:55:12;;;;;;;4.05;2.8;;;;;;;17.63;77.05566;94480.84;;;;
2022/09/14 02:56:17;;;;;;;4.05;2.8;;;;;;;17.63;77.05566;94480.84;;;;
2022/09/14 02:57:18;;;;;;;4.05;2.8;;;;;;;17.63;77.05566;94480.84;;;;
2022/09/14 02:58:19;;;;;;;4.05;2.8;;;;;;;17.63;77.05566;94480.84;;;;
2022/09/14 02:59:19;;;;;;;3.3;2.900001;;;;;;;17.66;77.12695;94441.94;;;;
2022/09/14 03:00:20;;;;;;;3.3;2.900001;;;;;;;17.66;77.12695;94441.94;;;;
2022/09/14 03:01:20;;;;;;;3.3;2.900001;;;;;;;17.66;77.12695;94441.94;;;;
2022/09/14 03:02:23;;;;;;;3.3;2.900001;;;;;;;17.66;77.12695;94441.94;;;;
2022/09/14 03:03:23;;;;;;;3.3;2.900001;;;;;;;17.66;77.12695;94441.94;;;;
2022/09/14 03:04:24;;;;;;;3.3;2.900001;;;;;;;17.66;77.12695;94441.94;;;;
2022/09/14 03:05:25;;;;;;;3.3;2.900001;;;;;;;17.66;77.12695;94441.94;;;;
2022/09/14 03:06:25;;;;;;;3.3;2.900001;;;;;;;17.66;77.12695;94441.94;;;;
2022/09/14 03:07:26;;;;;;;3.3;2.900001;;;;;;;17.66;77.12695;94441.94;;;;
2022/09/14 03:08:26;;;;;;;3.3;2.900001;;;;;;;17.66;77.12695;94441.94;;;;
2022/09/14 03:09:27;;;;;;;3.3;2.900001;;;;;;;17.66;77.12695;94441.94;;;;
2022/09/14 03:10:28;;;;;;;3.2;2.9;;;;;;;17.6;77.26855;94456;;;;
2022/09/14 03:11:30;;;;;;;3.2;2.9;;;;;;;17.6;77.26855;94456;;;;
2022/09/14 03:12:30;;;;;;;3.2;2.9;;;;;;;17.6;77.26855;94456;;;;
2022/09/14 03:13:31;;;;;;;3.2;2.9;;;;;;;17.6;77.26855;94456;;;;
2022/09/14 03:14:31;;;;;;;3.2;2.9;;;;;;;17.6;77.26855;94456;;;;
2022/09/14 03:15:32;;;;;;;3.2;2.9;;;;;;;17.6;77.26855;94456;;;;
2022/09/14 03:16:32;;;;;;;3.2;2.9;;;;;;;17.6;77.26855;94456;;;;
2022/09/14 03:17:33;;;;;;;3.2;2.9;;;;;;;17.6;77.26855;94456;;;;
2022/09/14 03:18:33;;;;;;;3.2;2.9;;;;;;;17.6;77.26855;94456;;;;
2022/09/14 03:19:35;;;;;;;3.2;2.9;;;;;;;17.6;77.26855;94456;;;;
2022/09/14 03:20:36;;;;;;;3.9;2.65;;;;;;;17.62;77.5127;94448.52;;;;
2022/09/14 03:21:37;;;;;;;3.9;2.65;;;;;;;17.62;77.5127;94448.52;;;;
2022/09/14 03:22:38;;;;;;;3.9;2.65;;;;;;;17.62;77.5127;94448.52;;;;
2022/09/14 03:23:39;;;;;;;3.9;2.65;;;;;;;17.62;77.5127;94448.52;;;;
2022/09/14 03:24:41;;;;;;;3.9;2.65;;;;;;;17.62;77.5127;94448.52;;;;
2022/09/14 03:25:42;;;;;;;3.9;2.65;;;;;;;17.62;77.5127;94448.52;;;;
2022/09/14 03:26:44;;;;;;;3.9;2.65;;;;;;;17.62;77.5127;94448.52;;;;
2022/09/14 03:27:45;;;;;;;3.9;2.65;;;;;;;17.62;77.5127;94448.52;;;;
2022/09/14 03:28:48;;;;;;;3.9;2.65;;;;;;;17.62;77.5127;94448.52;;;;
2022/09/14 03:29:50;;;;;;;3.9;2.65;;;;;;;17.62;77.5127;94448.52;;;;
2022/09/14 03:30:50;;;;;;;3.9;2.65;;;;;;;17.62;77.5127;94448.52;;;;
2022/09/14 03:31:51;;;;;;;2.7;2.5;;;;;;;17.62;77.53418;94444.87;;;;
2022/09/14 03:32:52;;;;;;;2.7;2.5;;;;;;;17.62;77.53418;94444.87;;;;
2022/09/14 03:33:53;;;;;;;2.7;2.5;;;;;;;17.62;77.53418;94444.87;;;;
2022/09/14 03:34:56;;;;;;;2.7;2.5;;;;;;;17.62;77.53418;94444.87;;;;
2022/09/14 03:35:57;;;;;;;2.7;2.5;;;;;;;17.62;77.53418;94444.87;;;;
2022/09/14 03:36:58;;;;;;;2.7;2.5;;;;;;;17.62;77.53418;94444.87;;;;
2022/09/14 03:37:59;;;;;;;2.7;2.5;;;;;;;17.62;77.53418;94444.87;;;;
2022/09/14 03:39:00;;;;;;;2.7;2.5;;;;;;;17.62;77.53418;94444.87;;;;
2022/09/14 03:40:01;;;;;;;2.7;2.5;;;;;;;17.62;77.53418;94444.87;;;;
2022/09/14 03:41:02;;;;;;;2.7;2.5;;;;;;;17.62;77.53418;94444.87;;;;
2022/09/14 03:42:07;;;;;;;3.6;2.55;;;;;;;17.69;77.68945;94447.66;;;;
2022/09/14 03:43:08;;;;;;;3.6;2.55;;;;;;;17.69;77.68945;94447.66;;;;
2022/09/14 03:44:08;;;;;;;3.6;2.55;;;;;;;17.69;77.68945;94447.66;;;;
2022/09/14 03:45:09;;;;;;;3.6;2.55;;;;;;;17.69;77.68945;94447.66;;;;
2022/09/14 03:46:11;;;;;;;3.6;2.55;;;;;;;17.69;77.68945;94447.66;;;;
2022/09/14 03:47:13;;;;;;;3.6;2.55;;;;;;;17.69;77.68945;94447.66;;;;
2022/09/14 03:48:14;;;;;;;3.6;2.55;;;;;;;17.69;77.68945;94447.66;;;;
2022/09/14 03:49:15;;;;;;;3.6;2.55;;;;;;;17.69;77.68945;94447.66;;;;
2022/09/14 03:50:15;;;;;;;3.6;2.55;;;;;;;17.69;77.68945;94447.66;;;;
2022/09/14 03:51:17;;;;;;;3.6;2.55;;;;;;;17.69;77.68945;94447.66;;;;
2022/09/14 03:52:18;;;;;;;3.6;2.55;;;;;;;17.69;77.68945;94447.66;;;;
2022/09/14 03:53:19;;;;;;;2.95;2.35;;;;;;;17.71;77.66016;94436.56;;;;
2022/09/14 03:54:19;;;;;;;2.95;2.35;;;;;;;17.71;77.66016;94436.56;;;;
2022/09/14 03:55:20;;;;;;;2.95;2.35;;;;;;;17.71;77.66016;94436.56;;;;
2022/09/14 03:56:21;;;;;;;2.95;2.35;;;;;;;17.71;77.66016;94436.56;;;;
2022/09/14 03:57:22;;;;;;;2.95;2.35;;;;;;;17.71;77.66016;94436.56;;;;
2022/09/14 03:58:22;;;;;;;2.95;2.35;;;;;;;17.71;77.66016;94436.56;;;;
2022/09/14 03:59:24;;;;;;;2.95;2.35;;;;;;;17.71;77.66016;94436.56;;;;
2022/09/14 04:00:24;;;;;;;2.95;2.35;;;;;;;17.71;77.66016;94436.56;;;;
2022/09/14 04:01:25;;;;;;;2.95;2.35;;;;;;;17.71;77.66016;94436.56;;;;
2022/09/14 04:02:25;;;;;;;2.95;2.35;;;;;;;17.71;77.66016;94436.56;;;;
2022/09/14 04:03:27;;;;;;;2.6;2.4;;;;;;;17.85;77.73926;94435.42;;;;
2022/09/14 04:04:28;;;;;;;2.6;2.4;;;;;;;17.85;77.73926;94435.42;;;;
2022/09/14 04:05:28;;;;;;;2.6;2.4;;;;;;;17.85;77.73926;94435.42;;;;
2022/09/14 04:06:29;;;;;;;2.6;2.4;;;;;;;17.85;77.73926;94435.42;;;;
2022/09/14 04:07:29;;;;;;;2.6;2.4;;;;;;;17.85;77.73926;94435.42;;;;
2022/09/14 04:08:30;;;;;;;2.6;2.4;;;;;;;17.85;77.73926;94435.42;;;;
2022/09/14 04:09:31;;;;;;;2.6;2.4;;;;;;;17.85;77.73926;94435.42;;;;
2022/09/14 04:10:32;;;;;;;2.6;2.4;;;;;;;17.85;77.73926;94435.42;;;;
2022/09/14 04:11:33;;;;;;;2.6;2.4;;;;;;;17.85;77.73926;94435.42;;;;
2022/09/14 04:12:34;;;;;;;2.6;2.4;;;;;;;17.85;77.73926;94435.42;;;;
2022/09/14 04:13:35;;;;;;;2.6;2.4;;;;;;;17.85;77.73926;94435.42;;;;
2022/09/14 04:14:36;;;;;;;4.500001;2.6;;;;;;;17.91;77.61816;94447.11;;;;
2022/09/14 04:15:36;;;;;;;4.500001;2.6;;;;;;;17.91;77.61816;94447.11;;;;
2022/09/14 04:16:36;;;;;;;4.500001;2.6;;;;;;;17.91;77.61816;94447.11;;;;
2022/09/14 04:17:39;;;;;;;4.500001;2.6;;;;;;;17.91;77.61816;94447.11;;;;
2022/09/14 04:18:39;;;;;;;4.500001;2.6;;;;;;;17.91;77.61816;94447.11;;;;
2022/09/14 04:19:41;;;;;;;4.500001;2.6;;;;;;;17.91;77.61816;94447.11;;;;
2022/09/14 04:20:41;;;;;;;4.500001;2.6;;;;;;;17.91;77.61816;94447.11;;;;
2022/09/14 04:21:41;;;;;;;4.500001;2.6;;;;;;;17.91;77.61816;94447.11;;;;
2022/09/14 04:22:42;;;;;;;4.500001;2.6;;;;;;;17.91;77.61816;94447.11;;;;
2022/09/14 04:23:43;;;;;;;4.500001;2.6;;;;;;;17.91;77.61816;94447.11;;;;
2022/09/14 04:24:43;;;;;;;3.200001;2.6;;;;;;;18.01;77.75586;94460.99;;;;
2022/09/14 04:25:44;;;;;;;3.200001;2.6;;;;;;;18.01;77.75586;94460.99;;;;
2022/09/14 04:26:44;;;;;;;3.200001;2.6;;;;;;;18.01;77.75586;94460.99;;;;
2022/09/14 04:27:45;;;;;;;3.200001;2.6;;;;;;;18.01;77.75586;94460.99;;;;
2022/09/14 04:28:46;;;;;;;3.200001;2.6;;;;;;;18.01;77.75586;94460.99;;;;
2022/09/14 04:29:46;;;;;;;3.200001;2.6;;;;;;;18.01;77.75586;94460.99;;;;
2022/09/14 04:30:48;;;;;;;3.200001;2.6;;;;;;;18.01;77.75586;94460.99;;;;
2022/09/14 04:31:57;;;;;;;3.200001;2.6;;;;;;;18.01;77.75586;94460.99;;;;
2022/09/14 04:32:57;;;;;;;3.200001;2.6;;;;;;;18.01;77.75586;94460.99;;;;
2022/09/14 04:33:58;;;;;;;3.200001;2.6;;;;;;;18.01;77.75586;94460.99;;;;
2022/09/14 04:34:59;;;;;;;3.200001;2.6;;;;;;;18.01;77.75586;94460.99;;;;
2022/09/14 04:36:00;;;;;;;3.1;2.6;;;;;;;18.01;78.00781;94460.42;;;;
2022/09/14 04:37:04;;;;;;;3.1;2.6;;;;;;;18.01;78.00781;94460.42;;;;
2022/09/14 04:38:04;;;;;;;3.1;2.6;;;;;;;18.01;78.00781;94460.42;;;;
2022/09/14 04:39:05;;;;;;;3.1;2.6;;;;;;;18.01;78.00781;94460.42;;;;
2022/09/14 04:40:06;;;;;;;3.1;2.6;;;;;;;18.01;78.00781;94460.42;;;;
2022/09/14 04:41:07;;;;;;;3.1;2.6;;;;;;;18.01;78.00781;94460.42;;;;
2022/09/14 04:42:10;;;;;;;3.1;2.6;;;;;;;18.01;78.00781;94460.42;;;;
2022/09/14 04:43:10;;;;;;;3.1;2.6;;;;;;;18.01;78.00781;94460.42;;;;
2022/09/14 04:44:11;;;;;;;3.1;2.6;;;;;;;18.01;78.00781;94460.42;;;;
2022/09/14 04:45:11;;;;;;;3.1;2.6;;;;;;;18.01;78.00781;94460.42;;;;
2022/09/14 04:46:13;;;;;;;2.8;2.5;;;;;;;18.08;78.11719;94440.86;;;;
2022/09/14 04:47:15;;;;;;;2.8;2.5;;;;;;;18.08;78.11719;94440.86;;;;
2022/09/14 04:48:16;;;;;;;2.8;2.5;;;;;;;18.08;78.11719;94440.86;;;;
2022/09/14 04:49:17;;;;;;;2.8;2.5;;;;;;;18.08;78.11719;94440.86;;;;
2022/09/14 04:50:18;;;;;;;2.8;2.5;;;;;;;18.08;78.11719;94440.86;;;;
2022/09/14 04:51:18;;;;;;;2.8;2.5;;;;;;;18.08;78.11719;94440.86;;;;
2022/09/14 04:52:23;;;;;;;2.8;2.5;;;;;;;18.08;78.11719;94440.86;;;;
2022/09/14 04:53:23;;;;;;;2.8;2.5;;;;;;;18.08;78.11719;94440.86;;;;
2022/09/14 04:54:24;;;;;;;2.8;2.5;;;;;;;18.08;78.11719;94440.86;;;;
2022/09/14 04:55:26;;;;;;;2.8;2.5;;;;;;;18.08;78.11719;94440.86;;;;
2022/09/14 04:56:27;;;;;;;2.5;2.2;;;;;;;18.12;78.06934;94442.04;;;;
2022/09/14 04:57:30;;;;;;;2.5;2.2;;;;;;;18.12;78.06934;94442.04;;;;
2022/09/14 04:58:31;;;;;;;2.5;2.2;;;;;;;18.12;78.06934;94442.04;;;;
2022/09/14 04:59:33;;;;;;;2.5;2.2;;;;;;;18.12;78.06934;94442.04;;;;
2022/09/14 05:00:34;;;;;;;2.5;2.2;;;;;;;18.12;78.06934;94442.04;;;;
2022/09/14 05:01:35;;;;;;;2.5;2.2;;;;;;;18.12;78.06934;94442.04;;;;
2022/09/14 05:02:37;;;;;;;2.5;2.2;;;;;;;18.12;78.06934;94442.04;;;;
2022/09/14 05:03:40;;;;;;;2.5;2.2;;;;;;;18.12;78.06934;94442.04;;;;
2022/09/14 05:04:41;;;;;;;2.5;2.2;;;;;;;18.12;78.06934;94442.04;;;;
2022/09/14 05:05:41;;;;;;;2.5;2.2;;;;;;;18.12;78.06934;94442.04;;;;
2022/09/14 05:06:43;;;;;;;2.5;2.2;;;;;;;18.12;78.06934;94442.04;;;;
2022/09/14 05:07:44;;;;;;;3.400001;2.3;;;;;;;18.26;78.08496;94438.85;;;;
2022/09/14 05:08:44;;;;;;;3.400001;2.3;;;;;;;18.26;78.08496;94438.85;;;;
2022/09/14 05:09:46;;;;;;;3.400001;2.3;;;;;;;18.26;78.08496;94438.85;;;;
2022/09/14 05:10:46;;;;;;;3.400001;2.3;;;;;;;18.26;78.08496;94438.85;;;;
2022/09/14 05:11:49;;;;;;;3.400001;2.3;;;;;;;18.26;78.08496;94438.85;;;;
2022/09/14 05:12:49;;;;;;;3.400001;2.3;;;;;;;18.26;78.08496;94438.85;;;;
2022/09/14 05:13:50;;;;;;;3.400001;2.3;;;;;;;18.26;78.08496;94438.85;;;;
2022/09/14 05:14:51;;;;;;;3.400001;2.3;;;;;;;18.26;78.08496;94438.85;;;;
2022/09/14 05:15:51;;;;;;;3.400001;2.3;;;;;;;18.26;78.08496;94438.85;;;;
2022/09/14 05:16:52;;;;;;;3.400001;2.3;;;;;;;18.26;78.08496;94438.85;;;;
2022/09/14 05:17:52;;;;;;;4.199999;2.4;;;;;;;18.38;77.92969;94431.24;;;;
2022/09/14 05:18:53;;;;;;;4.199999;2.4;;;;;;;18.38;77.92969;94431.24;;;;
2022/09/14 05:19:56;;;;;;;4.199999;2.4;;;;;;;18.38;77.92969;94431.24;;;;
2022/09/14 05:20:56;;;;;;;4.199999;2.4;;;;;;;18.38;77.92969;94431.24;;;;
2022/09/14 05:22:00;;;;;;;4.199999;2.4;;;;;;;18.38;77.92969;94431.24;;;;
2022/09/14 05:23:00;;;;;;;4.199999;2.4;;;;;;;18.38;77.92969;94431.24;;;;
2022/09/14 05:24:01;;;;;;;4.199999;2.4;;;;;;;18.38;77.92969;94431.24;;;;
2022/09/14 05:25:04;;;;;;;4.199999;2.4;;;;;;;18.38;77.92969;94431.24;;;;
2022/09/14 05:26:05;;;;;;;4.199999;2.4;;;;;;;18.38;77.92969;94431.24;;;;
2022/09/14 05:27:06;;;;;;;4.199999;2.4;;;;;;;18.38;77.92969;94431.24;;;;
2022/09/14 05:28:07;;;;;;;4.199999;2.4;;;;;;;18.38;77.92969;94431.24;;;;
2022/09/14 05:29:07;;;;;;;5.45;2.65;;;;;;;18.5;78.04883;94419.26;;;;
2022/09/14 05:30:11;;;;;;;5.45;2.65;;;;;;;18.5;78.04883;94419.26;;;;
2022/09/14 05:31:12;;;;;;;5.45;2.65;;;;;;;18.5;78.04883;94419.26;;;;
2022/09/14 05:32:13;;;;;;;5.45;2.65;;;;;;;18.5;78.04883;94419.26;;;;
2022/09/14 05:33:13;;;;;;;5.45;2.65;;;;;;;18.5;78.04883;94419.26;;;;
2022/09/14 05:34:14;;;;;;;5.45;2.65;;;;;;;18.5;78.04883;94419.26;;;;
2022/09/14 05:35:15;;;;;;;5.45;2.65;;;;;;;18.5;78.04883;94419.26;;;;
2022/09/14 05:36:16;;;;;;;5.45;2.65;;;;;;;18.5;78.04883;94419.26;;;;
2022/09/14 05:37:16;;;;;;;5.45;2.65;;;;;;;18.5;78.04883;94419.26;;;;
2022/09/14 05:38:17;;;;;;;5.45;2.65;;;;;;;18.5;78.04883;94419.26;;;;
2022/09/14 05:39:17;;;;;;;4.9;3.1;;;;;;;18.69;77.93945;94411.74;;;;
2022/09/14 05:40:18;;;;;;;4.9;3.1;;;;;;;18.69;77.93945;94411.74;;;;
2022/09/14 05:41:18;;;;;;;4.9;3.1;;;;;;;18.69;77.93945;94411.74;;;;
2022/09/14 05:42:19;;;;;;;4.9;3.1;;;;;;;18.69;77.93945;94411.74;;;;
2022/09/14 05:43:21;;;;;;;4.9;3.1;;;;;;;18.69;77.93945;94411.74;;;;
2022/09/14 05:44:22;;;;;;;4.9;3.1;;;;;;;18.69;77.93945;94411.74;;;;
2022/09/14 05:45:22;;;;;;;4.9;3.1;;;;;;;18.69;77.93945;94411.74;;;;
2022/09/14 05:46:23;;;;;;;4.9;3.1;;;;;;;18.69;77.93945;94411.74;;;;
2022/09/14 05:47:23;;;;;;;4.9;3.1;;;;;;;18.69;77.93945;94411.74;;;;
2022/09/14 05:48:24;;;;;;;4.9;3.1;;;;;;;18.69;77.93945;94411.74;;;;
2022/09/14 05:49:24;;;;;;;4.9;3.1;;;;;;;18.69;77.93945;94411.74;;;;
2022/09/14 05:50:25;;;;;;;5.25;2.85;;;;;;;18.96;78.0752;94404.35;;;;
2022/09/14 05:51:25;;;;;;;5.25;2.85;;;;;;;18.96;78.0752;94404.35;;;;
2022/09/14 05:52:27;;;;;;;5.25;2.85;;;;;;;18.96;78.0752;94404.35;;;;
2022/09/14 05:53:28;;;;;;;5.25;2.85;;;;;;;18.96;78.0752;94404.35;;;;
2022/09/14 05:54:28;;;;;;;5.25;2.85;;;;;;;18.96;78.0752;94404.35;;;;